sensor_id;sensor_type;location;lat;lon;timestamp;P1;durP1;ratioP1;P2;durP2;ratioP2
50355;SDS011;36264;51.296;-0.602;2023-07-24T00:00:19;4.78;;;2.28;;
50355;SDS011;36264;51.296;-0.602;2023-07-24T00:02:44;3.55;;;1.83;;
50355;SDS011;36264;51.296;-0.602;2023-07-24T00:05:10;3.65;;;2.00;;
50355;SDS011;36264;51.296;-0.602;2023-07-24T00:07:35;3.83;;;1.80;;
50355;SDS011;36264;51.296;-0.602;2023-07-24T00:10:01;3.80;;;2.15;;
50355;SDS011;36264;51.296;-0.602;2023-07-24T00:12:26;6.30;;;2.40;;
50355;SDS011;36264;51.296;-0.602;2023-07-24T00:14:52;4.28;;;2.10;;
50355;SDS011;36264;51.296;-0.602;2023-07-24T00:17:17;3.97;;;2.13;;
50355;SDS011;36264;51.296;-0.602;2023-07-24T00:19:43;4.35;;;2.20;;
50355;SDS011;36264;51.296;-0.602;2023-07-24T00:22:08;3.70;;;1.80;;
50355;SDS011;36264;51.296;-0.602;2023-07-24T00:24:33;3.83;;;1.90;;
50355;SDS011;36264;51.296;-0.602;2023-07-24T00:26:59;4.05;;;2.00;;
50355;SDS011;36264;51.296;-0.602;2023-07-24T00:29:24;3.88;;;1.90;;
50355;SDS011;36264;51.296;-0.602;2023-07-24T00:31:50;4.07;;;1.95;;
50355;SDS011;36264;51.296;-0.602;2023-07-24T00:34:15;4.65;;;1.80;;
50355;SDS011;36264;51.296;-0.602;2023-07-24T00:36:40;2.78;;;1.70;;
50355;SDS011;36264;51.296;-0.602;2023-07-24T00:39:06;3.75;;;1.80;;
50355;SDS011;36264;51.296;-0.602;2023-07-24T00:41:32;3.78;;;1.70;;
50355;SDS011;36264;51.296;-0.602;2023-07-24T00:43:57;2.20;;;1.67;;
50355;SDS011;36264;51.296;-0.602;2023-07-24T00:46:23;3.78;;;1.90;;
50355;SDS011;36264;51.296;-0.602;2023-07-24T00:48:49;4.05;;;2.00;;
50355;SDS011;36264;51.296;-0.602;2023-07-24T00:51:15;3.85;;;1.77;;
50355;SDS011;36264;51.296;-0.602;2023-07-24T00:53:41;3.22;;;1.52;;
50355;SDS011;36264;51.296;-0.602;2023-07-24T00:56:07;3.63;;;1.95;;
50355;SDS011;36264;51.296;-0.602;2023-07-24T00:58:33;6.18;;;2.08;;
50355;SDS011;36264;51.296;-0.602;2023-07-24T01:01:01;5.07;;;2.17;;
50355;SDS011;36264;51.296;-0.602;2023-07-24T01:03:31;3.65;;;1.90;;
50355;SDS011;36264;51.296;-0.602;2023-07-24T01:05:58;3.80;;;1.88;;
50355;SDS011;36264;51.296;-0.602;2023-07-24T01:08:26;4.82;;;1.90;;
50355;SDS011;36264;51.296;-0.602;2023-07-24T01:10:51;3.13;;;1.73;;
50355;SDS011;36264;51.296;-0.602;2023-07-24T01:13:19;3.30;;;1.70;;
50355;SDS011;36264;51.296;-0.602;2023-07-24T01:15:56;3.75;;;2.00;;
50355;SDS011;36264;51.296;-0.602;2023-07-24T01:18:28;3.88;;;1.80;;
50355;SDS011;36264;51.296;-0.602;2023-07-24T01:20:56;2.33;;;1.58;;
50355;SDS011;36264;51.296;-0.602;2023-07-24T01:23:27;4.55;;;2.13;;
50355;SDS011;36264;51.296;-0.602;2023-07-24T01:26:02;3.55;;;2.10;;
50355;SDS011;36264;51.296;-0.602;2023-07-24T01:28:28;3.13;;;1.60;;
50355;SDS011;36264;51.296;-0.602;2023-07-24T01:30:54;3.78;;;1.92;;
50355;SDS011;36264;51.296;-0.602;2023-07-24T01:33:21;3.10;;;1.60;;
50355;SDS011;36264;51.296;-0.602;2023-07-24T01:35:51;4.70;;;1.98;;
50355;SDS011;36264;51.296;-0.602;2023-07-24T01:38:25;2.45;;;1.60;;
50355;SDS011;36264;51.296;-0.602;2023-07-24T01:40:52;2.42;;;1.48;;
50355;SDS011;36264;51.296;-0.602;2023-07-24T01:43:18;3.80;;;1.70;;
50355;SDS011;36264;51.296;-0.602;2023-07-24T01:45:44;2.83;;;1.55;;
50355;SDS011;36264;51.296;-0.602;2023-07-24T01:48:09;4.28;;;2.08;;
50355;SDS011;36264;51.296;-0.602;2023-07-24T01:50:34;2.75;;;1.60;;
50355;SDS011;36264;51.296;-0.602;2023-07-24T01:53:00;3.38;;;2.03;;
50355;SDS011;36264;51.296;-0.602;2023-07-24T01:55:25;3.22;;;1.70;;
50355;SDS011;36264;51.296;-0.602;2023-07-24T01:57:51;4.18;;;1.98;;
50355;SDS011;36264;51.296;-0.602;2023-07-24T02:00:16;2.88;;;1.55;;
50355;SDS011;36264;51.296;-0.602;2023-07-24T02:02:41;3.88;;;1.80;;
50355;SDS011;36264;51.296;-0.602;2023-07-24T02:05:07;2.38;;;1.52;;
50355;SDS011;36264;51.296;-0.602;2023-07-24T02:07:32;3.40;;;1.88;;
50355;SDS011;36264;51.296;-0.602;2023-07-24T02:09:58;2.65;;;1.65;;
50355;SDS011;36264;51.296;-0.602;2023-07-24T02:12:23;5.10;;;2.30;;
50355;SDS011;36264;51.296;-0.602;2023-07-24T02:14:48;4.47;;;1.90;;
50355;SDS011;36264;51.296;-0.602;2023-07-24T02:17:16;3.08;;;1.70;;
50355;SDS011;36264;51.296;-0.602;2023-07-24T02:19:42;3.03;;;1.77;;
50355;SDS011;36264;51.296;-0.602;2023-07-24T02:22:07;3.90;;;1.80;;
50355;SDS011;36264;51.296;-0.602;2023-07-24T02:24:32;2.78;;;1.92;;
50355;SDS011;36264;51.296;-0.602;2023-07-24T02:26:58;3.60;;;1.80;;
50355;SDS011;36264;51.296;-0.602;2023-07-24T02:29:23;4.50;;;2.33;;
50355;SDS011;36264;51.296;-0.602;2023-07-24T02:31:49;3.53;;;1.67;;
50355;SDS011;36264;51.296;-0.602;2023-07-24T02:34:15;2.50;;;1.60;;
50355;SDS011;36264;51.296;-0.602;2023-07-24T02:36:41;4.03;;;1.70;;
50355;SDS011;36264;51.296;-0.602;2023-07-24T02:39:06;3.80;;;1.88;;
50355;SDS011;36264;51.296;-0.602;2023-07-24T02:41:32;4.25;;;1.83;;
50355;SDS011;36264;51.296;-0.602;2023-07-24T02:43:57;2.97;;;1.63;;
50355;SDS011;36264;51.296;-0.602;2023-07-24T02:46:23;2.22;;;1.50;;
50355;SDS011;36264;51.296;-0.602;2023-07-24T02:48:49;2.72;;;1.63;;
50355;SDS011;36264;51.296;-0.602;2023-07-24T02:51:15;4.00;;;1.67;;
50355;SDS011;36264;51.296;-0.602;2023-07-24T02:53:40;2.85;;;1.60;;
50355;SDS011;36264;51.296;-0.602;2023-07-24T02:56:06;3.80;;;1.85;;
50355;SDS011;36264;51.296;-0.602;2023-07-24T02:58:31;4.82;;;1.83;;
50355;SDS011;36264;51.296;-0.602;2023-07-24T03:01:03;3.42;;;1.60;;
50355;SDS011;36264;51.296;-0.602;2023-07-24T03:03:29;2.80;;;1.60;;
50355;SDS011;36264;51.296;-0.602;2023-07-24T03:05:55;2.20;;;1.63;;
50355;SDS011;36264;51.296;-0.602;2023-07-24T03:08:20;3.50;;;1.90;;
50355;SDS011;36264;51.296;-0.602;2023-07-24T03:10:46;2.42;;;1.48;;
50355;SDS011;36264;51.296;-0.602;2023-07-24T03:13:11;3.33;;;1.70;;
50355;SDS011;36264;51.296;-0.602;2023-07-24T03:15:36;3.90;;;2.05;;
50355;SDS011;36264;51.296;-0.602;2023-07-24T03:18:01;2.25;;;1.80;;
50355;SDS011;36264;51.296;-0.602;2023-07-24T03:20:27;4.35;;;1.80;;
50355;SDS011;36264;51.296;-0.602;2023-07-24T03:22:52;2.72;;;1.30;;
50355;SDS011;36264;51.296;-0.602;2023-07-24T03:25:18;3.10;;;1.45;;
50355;SDS011;36264;51.296;-0.602;2023-07-24T03:27:43;2.97;;;1.50;;
50355;SDS011;36264;51.296;-0.602;2023-07-24T03:30:08;3.95;;;1.67;;
50355;SDS011;36264;51.296;-0.602;2023-07-24T03:32:35;3.92;;;1.48;;
50355;SDS011;36264;51.296;-0.602;2023-07-24T03:35:02;3.33;;;1.90;;
50355;SDS011;36264;51.296;-0.602;2023-07-24T03:37:28;2.60;;;1.70;;
50355;SDS011;36264;51.296;-0.602;2023-07-24T03:39:54;3.03;;;1.52;;
50355;SDS011;36264;51.296;-0.602;2023-07-24T03:42:29;4.57;;;1.95;;
50355;SDS011;36264;51.296;-0.602;2023-07-24T03:44:56;3.22;;;1.70;;
50355;SDS011;36264;51.296;-0.602;2023-07-24T03:47:22;3.45;;;1.83;;
50355;SDS011;36264;51.296;-0.602;2023-07-24T03:49:48;6.57;;;2.83;;
50355;SDS011;36264;51.296;-0.602;2023-07-24T03:52:13;5.18;;;2.17;;
50355;SDS011;36264;51.296;-0.602;2023-07-24T03:54:39;3.95;;;1.80;;
50355;SDS011;36264;51.296;-0.602;2023-07-24T03:57:04;3.33;;;1.80;;
50355;SDS011;36264;51.296;-0.602;2023-07-24T03:59:30;4.68;;;2.10;;
50355;SDS011;36264;51.296;-0.602;2023-07-24T04:01:55;5.95;;;2.30;;
50355;SDS011;36264;51.296;-0.602;2023-07-24T04:04:21;4.55;;;1.90;;
50355;SDS011;36264;51.296;-0.602;2023-07-24T04:06:46;5.28;;;2.15;;
50355;SDS011;36264;51.296;-0.602;2023-07-24T04:09:12;5.00;;;2.10;;
50355;SDS011;36264;51.296;-0.602;2023-07-24T04:11:39;3.63;;;1.90;;
50355;SDS011;36264;51.296;-0.602;2023-07-24T04:14:08;3.22;;;1.65;;
50355;SDS011;36264;51.296;-0.602;2023-07-24T04:16:33;2.83;;;1.70;;
50355;SDS011;36264;51.296;-0.602;2023-07-24T04:18:59;2.50;;;1.75;;
50355;SDS011;36264;51.296;-0.602;2023-07-24T04:21:24;3.75;;;1.90;;
50355;SDS011;36264;51.296;-0.602;2023-07-24T04:23:49;3.38;;;1.73;;
50355;SDS011;36264;51.296;-0.602;2023-07-24T04:26:15;2.92;;;1.73;;
50355;SDS011;36264;51.296;-0.602;2023-07-24T04:28:40;3.85;;;1.85;;
50355;SDS011;36264;51.296;-0.602;2023-07-24T04:31:05;4.15;;;1.60;;
50355;SDS011;36264;51.296;-0.602;2023-07-24T04:33:31;3.50;;;1.90;;
50355;SDS011;36264;51.296;-0.602;2023-07-24T04:35:56;3.05;;;1.38;;
50355;SDS011;36264;51.296;-0.602;2023-07-24T04:38:22;5.10;;;1.70;;
50355;SDS011;36264;51.296;-0.602;2023-07-24T04:40:47;2.65;;;1.60;;
50355;SDS011;36264;51.296;-0.602;2023-07-24T04:43:13;2.72;;;1.70;;
50355;SDS011;36264;51.296;-0.602;2023-07-24T04:45:38;2.22;;;1.48;;
50355;SDS011;36264;51.296;-0.602;2023-07-24T04:48:04;1.67;;;1.30;;
50355;SDS011;36264;51.296;-0.602;2023-07-24T04:50:29;2.03;;;1.45;;
50355;SDS011;36264;51.296;-0.602;2023-07-24T04:52:55;2.20;;;1.40;;
50355;SDS011;36264;51.296;-0.602;2023-07-24T04:55:21;3.88;;;1.77;;
50355;SDS011;36264;51.296;-0.602;2023-07-24T04:57:47;3.20;;;1.77;;
50355;SDS011;36264;51.296;-0.602;2023-07-24T05:00:13;3.40;;;1.70;;
50355;SDS011;36264;51.296;-0.602;2023-07-24T05:02:39;2.63;;;1.45;;
50355;SDS011;36264;51.296;-0.602;2023-07-24T05:05:04;3.28;;;1.88;;
50355;SDS011;36264;51.296;-0.602;2023-07-24T05:07:30;2.67;;;1.58;;
50355;SDS011;36264;51.296;-0.602;2023-07-24T05:09:56;3.15;;;1.70;;
50355;SDS011;36264;51.296;-0.602;2023-07-24T05:12:21;2.65;;;1.70;;
50355;SDS011;36264;51.296;-0.602;2023-07-24T05:14:47;2.65;;;1.55;;
50355;SDS011;36264;51.296;-0.602;2023-07-24T05:17:12;3.58;;;1.70;;
50355;SDS011;36264;51.296;-0.602;2023-07-24T05:19:38;3.03;;;1.73;;
50355;SDS011;36264;51.296;-0.602;2023-07-24T05:22:03;4.70;;;1.90;;
50355;SDS011;36264;51.296;-0.602;2023-07-24T05:24:29;2.90;;;1.50;;
50355;SDS011;36264;51.296;-0.602;2023-07-24T05:26:54;2.58;;;1.60;;
50355;SDS011;36264;51.296;-0.602;2023-07-24T05:29:19;2.45;;;1.55;;
50355;SDS011;36264;51.296;-0.602;2023-07-24T05:31:45;3.33;;;1.80;;
50355;SDS011;36264;51.296;-0.602;2023-07-24T05:34:10;2.90;;;1.60;;
50355;SDS011;36264;51.296;-0.602;2023-07-24T05:36:35;4.45;;;1.73;;
50355;SDS011;36264;51.296;-0.602;2023-07-24T05:39:01;2.40;;;1.58;;
50355;SDS011;36264;51.296;-0.602;2023-07-24T05:41:26;5.70;;;1.67;;
50355;SDS011;36264;51.296;-0.602;2023-07-24T05:43:51;3.50;;;1.73;;
50355;SDS011;36264;51.296;-0.602;2023-07-24T05:46:17;4.30;;;1.70;;
50355;SDS011;36264;51.296;-0.602;2023-07-24T05:48:42;3.03;;;1.60;;
50355;SDS011;36264;51.296;-0.602;2023-07-24T05:51:07;2.65;;;1.65;;
50355;SDS011;36264;51.296;-0.602;2023-07-24T05:53:33;1.88;;;1.33;;
50355;SDS011;36264;51.296;-0.602;2023-07-24T05:55:59;3.67;;;1.60;;
50355;SDS011;36264;51.296;-0.602;2023-07-24T05:58:25;3.90;;;1.80;;
50355;SDS011;36264;51.296;-0.602;2023-07-24T06:00:51;3.33;;;1.60;;
50355;SDS011;36264;51.296;-0.602;2023-07-24T06:03:16;5.53;;;2.33;;
50355;SDS011;36264;51.296;-0.602;2023-07-24T06:05:42;4.00;;;2.22;;
50355;SDS011;36264;51.296;-0.602;2023-07-24T06:08:07;5.05;;;2.20;;
50355;SDS011;36264;51.296;-0.602;2023-07-24T06:10:33;3.92;;;1.80;;
50355;SDS011;36264;51.296;-0.602;2023-07-24T06:12:59;6.97;;;2.45;;
50355;SDS011;36264;51.296;-0.602;2023-07-24T06:15:25;4.25;;;2.03;;
50355;SDS011;36264;51.296;-0.602;2023-07-24T06:17:50;3.67;;;1.85;;
50355;SDS011;36264;51.296;-0.602;2023-07-24T06:20:15;3.92;;;1.85;;
50355;SDS011;36264;51.296;-0.602;2023-07-24T06:22:41;3.70;;;1.77;;
50355;SDS011;36264;51.296;-0.602;2023-07-24T06:25:06;2.38;;;1.60;;
50355;SDS011;36264;51.296;-0.602;2023-07-24T06:27:32;3.75;;;1.73;;
50355;SDS011;36264;51.296;-0.602;2023-07-24T06:29:57;3.03;;;1.60;;
50355;SDS011;36264;51.296;-0.602;2023-07-24T06:32:23;3.97;;;1.80;;
50355;SDS011;36264;51.296;-0.602;2023-07-24T06:34:48;2.40;;;1.55;;
50355;SDS011;36264;51.296;-0.602;2023-07-24T06:37:13;4.50;;;1.83;;
50355;SDS011;36264;51.296;-0.602;2023-07-24T06:39:39;2.58;;;1.50;;
50355;SDS011;36264;51.296;-0.602;2023-07-24T06:42:04;5.78;;;1.98;;
50355;SDS011;36264;51.296;-0.602;2023-07-24T06:44:29;4.07;;;1.70;;
50355;SDS011;36264;51.296;-0.602;2023-07-24T06:46:55;3.13;;;1.67;;
50355;SDS011;36264;51.296;-0.602;2023-07-24T06:49:20;3.28;;;1.73;;
50355;SDS011;36264;51.296;-0.602;2023-07-24T06:51:45;2.88;;;1.73;;
50355;SDS011;36264;51.296;-0.602;2023-07-24T06:54:11;3.60;;;2.05;;
50355;SDS011;36264;51.296;-0.602;2023-07-24T06:56:36;2.15;;;1.50;;
50355;SDS011;36264;51.296;-0.602;2023-07-24T06:59:02;4.93;;;2.22;;
50355;SDS011;36264;51.296;-0.602;2023-07-24T07:01:27;3.35;;;1.67;;
50355;SDS011;36264;51.296;-0.602;2023-07-24T07:03:53;3.83;;;1.70;;
50355;SDS011;36264;51.296;-0.602;2023-07-24T07:06:18;3.28;;;1.65;;
50355;SDS011;36264;51.296;-0.602;2023-07-24T07:08:43;5.18;;;1.80;;
50355;SDS011;36264;51.296;-0.602;2023-07-24T07:11:09;3.63;;;2.00;;
50355;SDS011;36264;51.296;-0.602;2023-07-24T07:13:34;2.63;;;1.50;;
50355;SDS011;36264;51.296;-0.602;2023-07-24T07:16:00;3.30;;;1.58;;
50355;SDS011;36264;51.296;-0.602;2023-07-24T07:18:25;1.73;;;1.38;;
50355;SDS011;36264;51.296;-0.602;2023-07-24T07:20:52;3.05;;;1.48;;
50355;SDS011;36264;51.296;-0.602;2023-07-24T07:23:19;2.13;;;1.63;;
50355;SDS011;36264;51.296;-0.602;2023-07-24T07:25:45;3.33;;;1.70;;
50355;SDS011;36264;51.296;-0.602;2023-07-24T07:28:14;2.95;;;1.65;;
50355;SDS011;36264;51.296;-0.602;2023-07-24T07:30:41;2.42;;;1.55;;
50355;SDS011;36264;51.296;-0.602;2023-07-24T07:33:07;3.38;;;1.60;;
50355;SDS011;36264;51.296;-0.602;2023-07-24T07:35:33;2.67;;;1.50;;
50355;SDS011;36264;51.296;-0.602;2023-07-24T07:37:59;2.72;;;1.75;;
50355;SDS011;36264;51.296;-0.602;2023-07-24T07:40:25;2.83;;;1.48;;
50355;SDS011;36264;51.296;-0.602;2023-07-24T07:42:52;2.30;;;1.50;;
50355;SDS011;36264;51.296;-0.602;2023-07-24T07:45:18;2.10;;;1.40;;
50355;SDS011;36264;51.296;-0.602;2023-07-24T07:47:44;4.75;;;1.70;;
50355;SDS011;36264;51.296;-0.602;2023-07-24T07:50:09;2.40;;;1.60;;
50355;SDS011;36264;51.296;-0.602;2023-07-24T07:52:35;3.83;;;1.60;;
50355;SDS011;36264;51.296;-0.602;2023-07-24T07:55:00;2.55;;;1.50;;
50355;SDS011;36264;51.296;-0.602;2023-07-24T07:57:25;2.90;;;1.75;;
50355;SDS011;36264;51.296;-0.602;2023-07-24T07:59:51;3.53;;;1.70;;
50355;SDS011;36264;51.296;-0.602;2023-07-24T08:02:16;3.30;;;1.65;;
50355;SDS011;36264;51.296;-0.602;2023-07-24T08:04:41;3.72;;;1.70;;
50355;SDS011;36264;51.296;-0.602;2023-07-24T08:07:07;2.92;;;1.70;;
50355;SDS011;36264;51.296;-0.602;2023-07-24T08:09:32;2.97;;;1.60;;
50355;SDS011;36264;51.296;-0.602;2023-07-24T08:11:58;3.17;;;1.80;;
50355;SDS011;36264;51.296;-0.602;2023-07-24T08:14:24;3.22;;;1.67;;
50355;SDS011;36264;51.296;-0.602;2023-07-24T08:16:50;2.58;;;1.60;;
50355;SDS011;36264;51.296;-0.602;2023-07-24T08:19:15;3.30;;;1.90;;
50355;SDS011;36264;51.296;-0.602;2023-07-24T08:21:41;2.95;;;1.80;;
50355;SDS011;36264;51.296;-0.602;2023-07-24T08:24:06;3.47;;;2.00;;
50355;SDS011;36264;51.296;-0.602;2023-07-24T08:26:32;3.33;;;1.92;;
50355;SDS011;36264;51.296;-0.602;2023-07-24T08:28:57;2.75;;;1.70;;
50355;SDS011;36264;51.296;-0.602;2023-07-24T08:31:23;2.70;;;1.60;;
50355;SDS011;36264;51.296;-0.602;2023-07-24T08:33:48;3.28;;;1.70;;
50355;SDS011;36264;51.296;-0.602;2023-07-24T08:36:13;3.38;;;2.00;;
50355;SDS011;36264;51.296;-0.602;2023-07-24T08:38:39;3.08;;;1.95;;
50355;SDS011;36264;51.296;-0.602;2023-07-24T08:41:06;3.65;;;2.10;;
50355;SDS011;36264;51.296;-0.602;2023-07-24T08:43:34;4.18;;;1.92;;
50355;SDS011;36264;51.296;-0.602;2023-07-24T08:46:00;3.38;;;2.03;;
50355;SDS011;36264;51.296;-0.602;2023-07-24T08:48:26;4.53;;;2.20;;
50355;SDS011;36264;51.296;-0.602;2023-07-24T08:50:55;2.83;;;1.90;;
50355;SDS011;36264;51.296;-0.602;2023-07-24T08:53:22;3.38;;;1.90;;
50355;SDS011;36264;51.296;-0.602;2023-07-24T08:55:49;3.30;;;1.90;;
50355;SDS011;36264;51.296;-0.602;2023-07-24T08:58:17;3.47;;;1.83;;
50355;SDS011;36264;51.296;-0.602;2023-07-24T09:00:43;3.15;;;1.88;;
50355;SDS011;36264;51.296;-0.602;2023-07-24T09:03:08;4.78;;;2.30;;
50355;SDS011;36264;51.296;-0.602;2023-07-24T09:05:34;3.40;;;2.22;;
50355;SDS011;36264;51.296;-0.602;2023-07-24T09:08:00;2.90;;;1.80;;
50355;SDS011;36264;51.296;-0.602;2023-07-24T09:10:25;3.30;;;1.85;;
50355;SDS011;36264;51.296;-0.602;2023-07-24T09:12:51;2.58;;;1.60;;
50355;SDS011;36264;51.296;-0.602;2023-07-24T09:15:17;2.40;;;1.50;;
50355;SDS011;36264;51.296;-0.602;2023-07-24T09:17:49;1.83;;;1.30;;
50355;SDS011;36264;51.296;-0.602;2023-07-24T09:20:18;3.42;;;1.80;;
50355;SDS011;36264;51.296;-0.602;2023-07-24T09:22:51;1.63;;;1.30;;
50355;SDS011;36264;51.296;-0.602;2023-07-24T09:25:17;2.15;;;1.30;;
50355;SDS011;36264;51.296;-0.602;2023-07-24T09:27:42;1.10;;;1.02;;
50355;SDS011;36264;51.296;-0.602;2023-07-24T09:30:12;1.60;;;1.30;;
50355;SDS011;36264;51.296;-0.602;2023-07-24T09:32:51;1.75;;;1.30;;
50355;SDS011;36264;51.296;-0.602;2023-07-24T09:35:17;2.13;;;1.40;;
50355;SDS011;36264;51.296;-0.602;2023-07-24T09:37:44;1.60;;;1.20;;
50355;SDS011;36264;51.296;-0.602;2023-07-24T09:40:10;0.90;;;0.90;;
50355;SDS011;36264;51.296;-0.602;2023-07-24T09:42:37;1.20;;;1.10;;
50355;SDS011;36264;51.296;-0.602;2023-07-24T09:45:05;1.20;;;1.10;;
50355;SDS011;36264;51.296;-0.602;2023-07-24T09:47:30;2.28;;;1.20;;
50355;SDS011;36264;51.296;-0.602;2023-07-24T09:49:56;1.10;;;1.00;;
50355;SDS011;36264;51.296;-0.602;2023-07-24T09:52:22;1.33;;;1.20;;
50355;SDS011;36264;51.296;-0.602;2023-07-24T09:57:17;3.63;;;1.10;;
50355;SDS011;36264;51.296;-0.602;2023-07-24T09:59:43;1.08;;;0.98;;
50355;SDS011;36264;51.296;-0.602;2023-07-24T10:02:10;1.30;;;1.20;;
50355;SDS011;36264;51.296;-0.602;2023-07-24T10:04:36;1.85;;;1.10;;
50355;SDS011;36264;51.296;-0.602;2023-07-24T10:07:03;1.02;;;0.90;;
50355;SDS011;36264;51.296;-0.602;2023-07-24T10:09:29;1.33;;;1.23;;
50355;SDS011;36264;51.296;-0.602;2023-07-24T10:11:56;1.20;;;1.10;;
50355;SDS011;36264;51.296;-0.602;2023-07-24T10:14:22;2.22;;;1.30;;
50355;SDS011;36264;51.296;-0.602;2023-07-24T10:16:48;2.83;;;1.00;;
50355;SDS011;36264;51.296;-0.602;2023-07-24T10:19:20;1.20;;;1.10;;
50355;SDS011;36264;51.296;-0.602;2023-07-24T10:21:49;1.52;;;1.20;;
50355;SDS011;36264;51.296;-0.602;2023-07-24T10:24:16;2.35;;;1.45;;
50355;SDS011;36264;51.296;-0.602;2023-07-24T10:26:41;1.25;;;1.15;;
50355;SDS011;36264;51.296;-0.602;2023-07-24T10:29:07;2.55;;;1.02;;
50355;SDS011;36264;51.296;-0.602;2023-07-24T10:31:34;1.33;;;1.20;;
50355;SDS011;36264;51.296;-0.602;2023-07-24T10:34:06;1.52;;;1.20;;
50355;SDS011;36264;51.296;-0.602;2023-07-24T10:36:35;1.13;;;1.00;;
50355;SDS011;36264;51.296;-0.602;2023-07-24T10:39:01;1.33;;;1.20;;
50355;SDS011;36264;51.296;-0.602;2023-07-24T10:41:34;1.30;;;1.10;;
50355;SDS011;36264;51.296;-0.602;2023-07-24T10:44:01;1.10;;;1.00;;
50355;SDS011;36264;51.296;-0.602;2023-07-24T10:46:35;1.15;;;1.02;;
50355;SDS011;36264;51.296;-0.602;2023-07-24T10:49:01;2.25;;;1.15;;
50355;SDS011;36264;51.296;-0.602;2023-07-24T10:51:29;1.10;;;1.00;;
50355;SDS011;36264;51.296;-0.602;2023-07-24T10:53:55;1.00;;;0.90;;
50355;SDS011;36264;51.296;-0.602;2023-07-24T10:56:20;1.00;;;0.90;;
50355;SDS011;36264;51.296;-0.602;2023-07-24T10:58:45;1.33;;;0.98;;
50355;SDS011;36264;51.296;-0.602;2023-07-24T11:01:11;1.30;;;1.20;;
50355;SDS011;36264;51.296;-0.602;2023-07-24T11:03:37;1.00;;;1.00;;
50355;SDS011;36264;51.296;-0.602;2023-07-24T11:06:04;1.20;;;1.10;;
50355;SDS011;36264;51.296;-0.602;2023-07-24T11:08:30;2.47;;;1.10;;
50355;SDS011;36264;51.296;-0.602;2023-07-24T11:10:56;1.05;;;0.98;;
50355;SDS011;36264;51.296;-0.602;2023-07-24T11:13:23;1.40;;;1.30;;
50355;SDS011;36264;51.296;-0.602;2023-07-24T11:15:50;1.85;;;1.10;;
50355;SDS011;36264;51.296;-0.602;2023-07-24T11:18:17;1.00;;;1.00;;
50355;SDS011;36264;51.296;-0.602;2023-07-24T11:20:46;1.00;;;1.00;;
50355;SDS011;36264;51.296;-0.602;2023-07-24T11:23:15;1.63;;;1.20;;
50355;SDS011;36264;51.296;-0.602;2023-07-24T11:25:40;1.27;;;1.17;;
50355;SDS011;36264;51.296;-0.602;2023-07-24T11:28:06;1.58;;;1.25;;
50355;SDS011;36264;51.296;-0.602;2023-07-24T11:30:33;1.23;;;1.10;;
50355;SDS011;36264;51.296;-0.602;2023-07-24T11:33:00;1.20;;;1.10;;
50355;SDS011;36264;51.296;-0.602;2023-07-24T11:35:27;1.38;;;1.15;;
50355;SDS011;36264;51.296;-0.602;2023-07-24T11:37:53;1.38;;;1.00;;
50355;SDS011;36264;51.296;-0.602;2023-07-24T11:40:18;0.98;;;0.98;;
50355;SDS011;36264;51.296;-0.602;2023-07-24T11:42:46;1.67;;;1.10;;
50355;SDS011;36264;51.296;-0.602;2023-07-24T11:45:12;3.00;;;1.17;;
50355;SDS011;36264;51.296;-0.602;2023-07-24T11:47:44;1.10;;;1.00;;
50355;SDS011;36264;51.296;-0.602;2023-07-24T11:50:10;1.52;;;1.17;;
50355;SDS011;36264;51.296;-0.602;2023-07-24T11:52:40;2.97;;;1.17;;
50355;SDS011;36264;51.296;-0.602;2023-07-24T11:55:08;1.48;;;1.10;;
50355;SDS011;36264;51.296;-0.602;2023-07-24T11:57:34;1.85;;;1.20;;
50355;SDS011;36264;51.296;-0.602;2023-07-24T12:00:00;4.03;;;1.38;;
50355;SDS011;36264;51.296;-0.602;2023-07-24T12:02:26;1.23;;;1.13;;
50355;SDS011;36264;51.296;-0.602;2023-07-24T12:04:55;1.20;;;1.10;;
50355;SDS011;36264;51.296;-0.602;2023-07-24T12:07:28;2.08;;;1.27;;
50355;SDS011;36264;51.296;-0.602;2023-07-24T12:09:56;1.77;;;1.23;;
50355;SDS011;36264;51.296;-0.602;2023-07-24T12:12:21;3.00;;;1.48;;
50355;SDS011;36264;51.296;-0.602;2023-07-24T12:14:47;2.20;;;1.55;;
50355;SDS011;36264;51.296;-0.602;2023-07-24T12:17:17;2.00;;;1.30;;
50355;SDS011;36264;51.296;-0.602;2023-07-24T12:22:08;1.65;;;1.20;;
50355;SDS011;36264;51.296;-0.602;2023-07-24T12:24:33;2.13;;;1.20;;
50355;SDS011;36264;51.296;-0.602;2023-07-24T12:26:59;1.33;;;1.10;;
50355;SDS011;36264;51.296;-0.602;2023-07-24T12:29:24;1.15;;;1.05;;
50355;SDS011;36264;51.296;-0.602;2023-07-24T12:31:50;1.92;;;1.30;;
50355;SDS011;36264;51.296;-0.602;2023-07-24T12:34:15;1.30;;;1.20;;
50355;SDS011;36264;51.296;-0.602;2023-07-24T12:36:41;2.80;;;1.33;;
50355;SDS011;36264;51.296;-0.602;2023-07-24T12:39:06;1.83;;;1.23;;
50355;SDS011;36264;51.296;-0.602;2023-07-24T12:41:32;1.73;;;1.30;;
50355;SDS011;36264;51.296;-0.602;2023-07-24T12:43:57;2.42;;;1.40;;
50355;SDS011;36264;51.296;-0.602;2023-07-24T12:46:23;2.55;;;1.40;;
50355;SDS011;36264;51.296;-0.602;2023-07-24T12:48:48;1.83;;;1.40;;
50355;SDS011;36264;51.296;-0.602;2023-07-24T12:51:13;3.65;;;1.45;;
50355;SDS011;36264;51.296;-0.602;2023-07-24T12:53:39;2.95;;;1.42;;
50355;SDS011;36264;51.296;-0.602;2023-07-24T12:56:04;2.05;;;1.48;;
50355;SDS011;36264;51.296;-0.602;2023-07-24T12:58:29;2.53;;;1.42;;
50355;SDS011;36264;51.296;-0.602;2023-07-24T13:00:55;2.70;;;1.40;;
50355;SDS011;36264;51.296;-0.602;2023-07-24T13:03:20;2.78;;;1.40;;
50355;SDS011;36264;51.296;-0.602;2023-07-24T13:05:46;2.72;;;1.50;;
50355;SDS011;36264;51.296;-0.602;2023-07-24T13:08:12;1.88;;;1.50;;
50355;SDS011;36264;51.296;-0.602;2023-07-24T13:10:37;2.67;;;1.52;;
50355;SDS011;36264;51.296;-0.602;2023-07-24T13:13:03;3.30;;;1.60;;
50355;SDS011;36264;51.296;-0.602;2023-07-24T13:15:28;1.92;;;1.10;;
50355;SDS011;36264;51.296;-0.602;2023-07-24T13:17:54;1.50;;;1.20;;
50355;SDS011;36264;51.296;-0.602;2023-07-24T13:20:20;1.52;;;1.30;;
50355;SDS011;36264;51.296;-0.602;2023-07-24T13:22:45;2.53;;;1.40;;
50355;SDS011;36264;51.296;-0.602;2023-07-24T13:25:12;1.92;;;1.40;;
50355;SDS011;36264;51.296;-0.602;2023-07-24T13:27:37;1.92;;;1.30;;
50355;SDS011;36264;51.296;-0.602;2023-07-24T13:30:02;1.80;;;1.40;;
50355;SDS011;36264;51.296;-0.602;2023-07-24T13:32:28;4.82;;;1.58;;
50355;SDS011;36264;51.296;-0.602;2023-07-24T13:34:55;1.73;;;1.30;;
50355;SDS011;36264;51.296;-0.602;2023-07-24T13:37:20;2.90;;;1.60;;
50355;SDS011;36264;51.296;-0.602;2023-07-24T13:39:46;4.60;;;1.50;;
50355;SDS011;36264;51.296;-0.602;2023-07-24T13:42:12;2.20;;;1.42;;
50355;SDS011;36264;51.296;-0.602;2023-07-24T13:44:37;2.97;;;1.48;;
50355;SDS011;36264;51.296;-0.602;2023-07-24T13:47:02;2.22;;;1.40;;
50355;SDS011;36264;51.296;-0.602;2023-07-24T13:49:28;1.90;;;1.35;;
50355;SDS011;36264;51.296;-0.602;2023-07-24T13:51:53;2.95;;;1.60;;
50355;SDS011;36264;51.296;-0.602;2023-07-24T13:54:19;3.08;;;1.70;;
50355;SDS011;36264;51.296;-0.602;2023-07-24T13:56:44;2.17;;;1.40;;
50355;SDS011;36264;51.296;-0.602;2023-07-24T13:59:09;2.65;;;1.27;;
50355;SDS011;36264;51.296;-0.602;2023-07-24T14:01:35;1.77;;;1.33;;
50355;SDS011;36264;51.296;-0.602;2023-07-24T14:04:00;2.20;;;1.40;;
50355;SDS011;36264;51.296;-0.602;2023-07-24T14:06:25;2.15;;;1.25;;
50355;SDS011;36264;51.296;-0.602;2023-07-24T14:08:51;3.00;;;1.40;;
50355;SDS011;36264;51.296;-0.602;2023-07-24T14:11:16;3.38;;;1.58;;
50355;SDS011;36264;51.296;-0.602;2023-07-24T14:13:41;2.72;;;1.42;;
50355;SDS011;36264;51.296;-0.602;2023-07-24T14:16:07;2.10;;;1.42;;
50355;SDS011;36264;51.296;-0.602;2023-07-24T14:18:32;4.45;;;1.50;;
50355;SDS011;36264;51.296;-0.602;2023-07-24T14:20:57;3.10;;;1.65;;
50355;SDS011;36264;51.296;-0.602;2023-07-24T14:23:24;2.75;;;1.60;;
50355;SDS011;36264;51.296;-0.602;2023-07-24T14:25:49;2.92;;;1.48;;
50355;SDS011;36264;51.296;-0.602;2023-07-24T14:28:15;2.65;;;1.50;;
50355;SDS011;36264;51.296;-0.602;2023-07-24T14:30:40;3.63;;;1.60;;